createdAt,value
2018-11-03T00:00:46.297Z,74.60
2018-11-03T00:03:14.711Z,75.90
2018-11-03T00:05:43.377Z,75.20
2018-11-03T00:08:11.804Z,73.40
2018-11-03T00:10:55.085Z,74.10
2018-11-03T00:13:23.790Z,74.30
2018-11-03T00:15:52.167Z,75.10
2018-11-03T00:18:20.784Z,75.20
2018-11-03T00:20:49.140Z,75.80
2018-11-03T00:23:17.509Z,75.60
2018-11-03T00:25:46.144Z,74.40
2018-11-03T00:28:14.508Z,74.50
2018-11-03T00:30:42.928Z,74.80
2018-11-03T00:33:11.582Z,75.40
2018-11-03T00:35:39.968Z,74.40
2018-11-03T00:38:08.396Z,74.70
2018-11-03T00:40:36.862Z,74.80
2018-11-03T00:43:06.225Z,75.60
2018-11-03T00:45:34.597Z,74.40
2018-11-03T00:48:03.016Z,74.60
2018-11-03T00:52:59.928Z,74.20
2018-11-03T00:55:29.022Z,75.30
2018-11-03T00:57:57.763Z,76.00
2018-11-03T01:00:26.769Z,76.40
2018-11-03T01:02:55.140Z,76.80
2018-11-03T01:05:25.037Z,77.50
2018-11-03T01:07:55.022Z,77.70
2018-11-03T01:10:24.101Z,78.30
2018-11-03T01:12:52.465Z,78.90
2018-11-03T01:15:27.402Z,79.60
2018-11-03T01:17:55.797Z,80.50
2018-11-03T01:20:26.096Z,80.50
2018-11-03T01:22:54.648Z,79.90
2018-11-03T01:25:24.319Z,80.50
2018-11-03T01:30:30.204Z,81.80
2018-11-03T01:32:59.079Z,80.20
2018-11-03T01:35:27.465Z,80.20
2018-11-03T01:37:56.073Z,80.00
2018-11-03T01:40:29.706Z,81.80
2018-11-03T01:42:58.958Z,79.90
2018-11-03T01:45:27.960Z,79.40
2018-11-03T01:47:56.616Z,79.70
2018-11-03T01:50:25.063Z,80.40
2018-11-03T01:52:53.687Z,80.40
2018-11-03T01:55:22.420Z,80.20
2018-11-03T01:57:50.719Z,81.40
2018-11-03T02:00:19.477Z,81.40
2018-11-03T02:02:48.142Z,81.80
2018-11-03T02:05:16.622Z,80.70
2018-11-03T02:07:45.959Z,81.20
2018-11-03T02:10:14.700Z,81.00
2018-11-03T02:12:43.056Z,80.80
2018-11-03T02:15:11.436Z,80.20
2018-11-03T02:17:40.034Z,80.90
2018-11-03T02:20:09.769Z,81.20
2018-11-03T02:22:39.246Z,80.60
2018-11-03T02:25:08.009Z,81.10
2018-11-03T02:27:37.040Z,81.40
2018-11-03T02:30:07.796Z,80.00
2018-11-03T02:32:36.448Z,80.30
2018-11-03T02:35:06.320Z,80.20
2018-11-03T02:37:34.827Z,80.00
2018-11-03T02:40:03.562Z,79.40
2018-11-03T02:42:31.941Z,80.90
2018-11-03T02:45:00.601Z,79.50
2018-11-03T02:47:29.088Z,79.50
2018-11-03T02:49:57.588Z,80.20
2018-11-03T02:52:26.975Z,79.40
2018-11-03T02:54:55.425Z,79.90
2018-11-03T02:57:24.366Z,79.90
2018-11-03T02:59:53.064Z,80.00
2018-11-03T03:02:22.127Z,80.00
2018-11-03T03:04:50.557Z,79.80
2018-11-03T03:07:19.352Z,79.60
2018-11-03T03:09:47.951Z,79.80
2018-11-03T03:12:17.200Z,79.60
2018-11-03T03:14:45.520Z,79.80
2018-11-03T03:17:14.144Z,79.70
2018-11-03T03:19:42.840Z,79.70
2018-11-03T03:22:11.218Z,79.60
2018-11-03T03:24:40.084Z,79.20
2018-11-03T03:27:09.111Z,79.10
2018-11-03T03:29:38.287Z,78.70
2018-11-03T03:32:08.273Z,79.40
2018-11-03T03:34:36.702Z,79.40
2018-11-03T03:37:05.615Z,79.20
2018-11-03T03:39:34.567Z,79.30
2018-11-03T03:42:06.679Z,79.80
2018-11-03T03:44:35.654Z,79.20
2018-11-03T03:47:04.052Z,79.70
2018-11-03T03:49:32.779Z,79.40
2018-11-03T03:52:02.334Z,80.80
2018-11-03T03:54:31.047Z,79.30
2018-11-03T03:57:00.086Z,80.00
2018-11-03T03:59:28.841Z,80.20
2018-11-03T04:01:57.258Z,78.70
2018-11-03T04:04:25.652Z,75.80
2018-11-03T04:06:54.733Z,76.50
2018-11-03T04:09:23.131Z,75.90
2018-11-03T04:11:51.737Z,76.40
2018-11-03T04:14:20.132Z,75.60
2018-11-03T04:16:48.540Z,76.00
2018-11-03T04:19:16.975Z,77.10
2018-11-03T04:21:46.017Z,77.90
2018-11-03T04:24:15.312Z,77.00
2018-11-03T04:26:43.751Z,77.40
2018-11-03T04:29:12.041Z,76.90
2018-11-03T04:31:43.179Z,76.40
2018-11-03T04:34:11.552Z,76.90
2018-11-03T04:36:39.921Z,76.70
2018-11-03T04:39:08.504Z,76.50
2018-11-03T04:41:37.029Z,76.40
2018-11-03T04:44:05.440Z,76.90
2018-11-03T04:46:33.859Z,76.90
2018-11-03T04:49:03.796Z,77.20
2018-11-03T04:51:33.716Z,77.50
2018-11-03T04:54:02.172Z,77.50
2018-11-03T04:56:31.017Z,77.60
2018-11-03T04:58:59.386Z,77.90
2018-11-03T05:01:28.617Z,78.10
2018-11-03T05:03:56.973Z,77.90
2018-11-03T05:06:25.742Z,77.90
2018-11-03T05:08:54.421Z,77.80
2018-11-03T05:11:22.790Z,77.20
2018-11-03T05:13:51.247Z,77.80
2018-11-03T05:16:19.890Z,77.70
2018-11-03T05:18:48.885Z,78.50
2018-11-03T05:21:17.627Z,78.30
2018-11-03T05:23:46.732Z,78.00
2018-11-03T05:26:15.216Z,78.30
2018-11-03T05:28:43.680Z,78.80
2018-11-03T05:31:12.462Z,78.40
2018-11-03T05:33:41.475Z,78.30
2018-11-03T05:36:09.833Z,77.50
2018-11-03T05:38:38.530Z,78.10
2018-11-03T05:41:07.228Z,77.80
2018-11-03T05:43:36.243Z,77.60
2018-11-03T05:46:04.733Z,78.00
2018-11-03T05:48:33.490Z,78.50
2018-11-03T05:51:02.609Z,78.40
2018-11-03T05:53:31.411Z,76.90
2018-11-03T05:55:59.768Z,77.80
2018-11-03T05:58:28.768Z,77.50
2018-11-03T06:00:57.668Z,78.00
2018-11-03T06:03:26.898Z,77.50
2018-11-03T06:05:57.226Z,77.90
2018-11-03T06:08:26.808Z,78.00
2018-11-03T06:10:55.806Z,77.70
2018-11-03T06:13:24.521Z,76.40
2018-11-03T06:15:53.165Z,76.60
2018-11-03T06:18:21.597Z,76.90
2018-11-03T06:20:50.281Z,77.20
2018-11-03T06:23:18.986Z,77.20
2018-11-03T06:25:48.946Z,76.90
2018-11-03T06:28:18.267Z,77.40
2018-11-03T06:30:46.877Z,77.90
2018-11-03T06:33:15.306Z,78.00
2018-11-03T06:35:43.847Z,77.40
2018-11-03T06:38:12.807Z,77.80
2018-11-03T06:40:41.587Z,77.50
2018-11-03T06:43:10.271Z,77.80
2018-11-03T06:45:39.894Z,77.50
2018-11-03T06:48:09.372Z,76.30
2018-11-03T06:50:38.124Z,75.60
2018-11-03T06:53:06.599Z,76.30
2018-11-03T06:55:35.017Z,74.80
2018-11-03T06:58:03.395Z,75.20
2018-11-03T07:00:32.287Z,74.80
2018-11-03T07:03:01.952Z,75.50
2018-11-03T07:05:30.400Z,76.30
2018-11-03T07:07:58.860Z,75.20
2018-11-03T07:10:28.534Z,74.80
2018-11-03T07:12:57.310Z,74.80
2018-11-03T07:15:25.878Z,75.30
2018-11-03T07:17:54.760Z,75.00
2018-11-03T07:20:24.136Z,74.40
2018-11-03T07:25:20.784Z,74.10
2018-11-03T07:27:49.903Z,73.90
2018-11-03T07:30:18.463Z,74.90
2018-11-03T07:32:48.708Z,74.00
2018-11-03T07:35:17.733Z,73.80
2018-11-03T07:40:16.579Z,73.50
2018-11-03T07:45:14.840Z,73.20
2018-11-03T07:47:44.291Z,73.60
2018-11-03T07:50:13.285Z,71.90
2018-11-03T07:52:43.356Z,72.50
2018-11-03T07:55:13.040Z,72.50
2018-11-03T07:57:42.419Z,72.90
2018-11-03T08:00:13.104Z,73.50
2018-11-03T08:02:42.023Z,72.80
2018-11-03T08:05:11.368Z,73.50
2018-11-03T08:07:39.874Z,73.90
2018-11-03T08:10:09.883Z,73.30
2018-11-03T08:12:38.279Z,73.80
2018-11-03T08:15:08.429Z,73.70
2018-11-03T08:17:36.761Z,74.30
2018-11-03T08:20:09.183Z,73.30
2018-11-03T08:22:38.252Z,73.00
2018-11-03T08:25:07.298Z,73.30
2018-11-03T08:27:36.067Z,73.20
2018-11-03T08:32:35.457Z,72.10
2018-11-03T08:37:33.236Z,71.40
2018-11-03T08:40:02.128Z,71.90
2018-11-03T08:42:30.524Z,73.40
2018-11-03T08:44:58.923Z,71.70
2018-11-03T08:47:27.537Z,71.80
2018-11-03T08:52:24.569Z,70.80
2018-11-03T08:54:53.265Z,71.10
2018-11-03T08:57:21.950Z,71.00
2018-11-03T08:59:50.656Z,70.40
2018-11-03T09:02:19.064Z,70.80
2018-11-03T09:04:48.402Z,70.80
2018-11-03T09:07:16.891Z,70.10
2018-11-03T09:09:45.321Z,70.40
2018-11-03T09:12:14.223Z,69.80
2018-11-03T09:14:42.757Z,70.10
2018-11-03T09:17:11.065Z,69.80
2018-11-03T09:19:40.123Z,70.00
2018-11-03T09:22:08.406Z,69.60
2018-11-03T09:24:37.380Z,68.90
2018-11-03T09:27:06.427Z,69.10
2018-11-03T09:29:34.903Z,69.60
2018-11-03T09:32:04.031Z,68.40
2018-11-03T09:34:32.446Z,67.80
2018-11-03T09:37:01.635Z,67.70
2018-11-03T09:39:30.015Z,68.20
2018-11-03T09:41:59.563Z,66.90
2018-11-03T09:44:28.673Z,67.40
2018-11-03T09:46:57.599Z,66.90
2018-11-03T09:49:26.130Z,66.40
2018-11-03T09:51:54.588Z,66.20
2018-11-03T09:54:23.510Z,65.10
2018-11-03T09:56:52.740Z,64.80
2018-11-03T09:59:21.415Z,64.80
2018-11-03T10:01:49.864Z,65.80
2018-11-03T10:04:19.044Z,65.10
2018-11-03T10:06:47.534Z,65.40
2018-11-03T10:09:16.249Z,64.60
2018-11-03T10:11:44.718Z,65.20
2018-11-03T10:14:13.510Z,64.20
2018-11-03T10:16:41.919Z,64.90
2018-11-03T10:19:12.220Z,64.90
2018-11-03T10:21:42.395Z,65.00
2018-11-03T10:24:10.782Z,63.40
2018-11-03T10:26:39.282Z,63.10
2018-11-03T10:29:07.773Z,61.30
2018-11-03T10:31:36.190Z,61.80
2018-11-03T10:34:05.300Z,62.70
2018-11-03T10:36:33.800Z,62.80
2018-11-03T10:39:02.386Z,62.50
2018-11-03T10:41:30.780Z,63.00
2018-11-03T10:43:59.511Z,62.50
2018-11-03T10:49:05.437Z,60.70
2018-11-03T10:51:34.304Z,60.20
2018-11-03T10:54:02.790Z,60.20
2018-11-03T10:56:31.545Z,60.40
2018-11-03T10:58:59.930Z,59.70
2018-11-03T11:01:34.547Z,60.00
2018-11-03T11:04:09.035Z,60.20
2018-11-03T11:06:43.150Z,60.30
2018-11-03T11:09:17.166Z,60.40
2018-11-03T11:11:51.311Z,59.60
2018-11-03T11:14:20.245Z,60.40
2018-11-03T11:16:49.499Z,59.30
2018-11-03T11:19:18.713Z,59.00
2018-11-03T11:21:47.674Z,57.80
2018-11-03T11:24:16.389Z,57.70
2018-11-03T11:26:45.430Z,57.40
2018-11-03T11:29:15.443Z,57.80
2018-11-03T11:31:44.967Z,57.60
2018-11-03T11:34:13.467Z,55.70
2018-11-03T11:36:41.964Z,55.70
2018-11-03T11:39:11.262Z,55.90
2018-11-03T11:41:39.704Z,54.80
2018-11-03T11:44:11.185Z,54.70
2018-11-03T11:46:39.570Z,55.10
2018-11-03T11:49:08.522Z,53.10
2018-11-03T11:51:36.962Z,53.60
2018-11-03T11:54:06.958Z,52.80
2018-11-03T11:56:35.434Z,52.30
2018-11-03T11:59:04.388Z,53.00
2018-11-03T12:01:33.124Z,51.00
2018-11-03T12:04:01.868Z,50.60
2018-11-03T12:06:30.336Z,51.10
2018-11-03T12:09:00.156Z,49.40
2018-11-03T12:11:29.370Z,50.00
2018-11-03T12:13:58.283Z,51.30
2018-11-03T12:16:26.694Z,51.30
2018-11-03T12:18:57.598Z,50.10
2018-11-03T12:21:26.420Z,51.00
2018-11-03T12:23:55.003Z,50.30
2018-11-03T12:26:24.162Z,51.30
2018-11-03T12:28:54.794Z,50.70
2018-11-03T12:31:23.438Z,51.20
2018-11-03T12:33:52.085Z,51.10
2018-11-03T12:36:23.052Z,51.20
2018-11-03T12:38:52.441Z,51.50
2018-11-03T12:41:21.490Z,52.30
2018-11-03T12:43:52.081Z,51.80
2018-11-03T12:46:23.143Z,52.30
2018-11-03T12:48:51.625Z,52.90
2018-11-03T12:53:49.043Z,53.00
2018-11-03T12:56:18.462Z,52.70
2018-11-03T12:58:47.094Z,53.10
2018-11-03T13:01:15.700Z,53.50
2018-11-03T13:03:44.544Z,52.70
2018-11-03T13:06:13.448Z,53.20
2018-11-03T13:08:42.013Z,53.90
2018-11-03T13:11:10.677Z,53.00
2018-11-03T13:13:39.120Z,54.30
2018-11-03T13:16:08.757Z,53.40
2018-11-03T13:18:37.359Z,52.50
2018-11-03T13:21:06.495Z,52.50
2018-11-03T13:23:36.410Z,53.10
2018-11-03T13:26:05.810Z,51.90
2018-11-03T13:28:34.427Z,52.50
2018-11-03T13:31:02.915Z,52.50
2018-11-03T13:33:31.423Z,52.40
2018-11-03T13:36:00.012Z,52.40
2018-11-03T13:38:29.351Z,52.80
2018-11-03T13:40:57.942Z,53.00
2018-11-03T13:43:26.535Z,53.00
2018-11-03T13:45:54.947Z,54.30
2018-11-03T13:48:23.284Z,53.10
2018-11-03T13:50:51.883Z,53.60
2018-11-03T13:53:21.469Z,53.70
2018-11-03T13:55:50.187Z,53.70
2018-11-03T13:58:18.922Z,54.40
2018-11-03T14:00:48.145Z,54.70
2018-11-03T14:03:17.206Z,55.10
2018-11-03T14:05:45.988Z,55.40
2018-11-03T14:08:14.348Z,55.20
2018-11-03T14:10:43.183Z,55.40
2018-11-03T14:13:12.224Z,55.70
2018-11-03T14:15:40.656Z,56.20
2018-11-03T14:18:09.057Z,56.60
2018-11-03T14:20:37.487Z,56.50
2018-11-03T14:23:23.392Z,56.50
2018-11-03T14:25:51.740Z,56.50
2018-11-03T14:28:20.556Z,56.10
2018-11-03T14:33:17.605Z,55.40
2018-11-03T14:35:46.475Z,56.00
2018-11-03T14:38:14.955Z,56.20
2018-11-03T14:40:43.645Z,56.50
2018-11-03T14:43:13.754Z,57.00
2018-11-03T14:45:43.063Z,57.40
2018-11-03T14:48:11.890Z,57.00
2018-11-03T14:50:40.370Z,57.70
2018-11-03T14:53:09.052Z,57.90
2018-11-03T14:55:37.761Z,58.00
2018-11-03T14:58:06.629Z,58.10
2018-11-03T15:00:37.032Z,58.50
2018-11-03T15:03:07.149Z,58.80
2018-11-03T15:05:36.095Z,58.50
2018-11-03T15:08:05.899Z,58.60
2018-11-03T15:10:34.764Z,58.70
2018-11-03T15:13:03.222Z,59.20
2018-11-03T15:15:31.812Z,59.60
2018-11-03T15:18:02.284Z,59.60
2018-11-03T15:20:31.610Z,59.70
2018-11-03T15:23:00.476Z,60.00
2018-11-03T15:25:35.526Z,60.20
2018-11-03T15:28:07.412Z,59.60
2018-11-03T16:05:56.415Z,62.30
2018-11-03T16:08:25.065Z,63.40
2018-11-03T16:10:54.924Z,64.00
2018-11-03T16:13:24.104Z,63.90
2018-11-03T16:28:19.250Z,63.70
2018-11-03T16:30:47.757Z,63.70
2018-11-03T16:33:16.697Z,64.00
2018-11-03T16:35:45.611Z,64.00
2018-11-03T16:38:14.506Z,64.30
2018-11-03T16:40:44.499Z,64.70
2018-11-03T16:43:13.440Z,64.50
2018-11-03T16:45:42.139Z,64.60
2018-11-03T16:48:10.671Z,64.60
2018-11-03T16:50:39.359Z,64.80
2018-11-03T16:53:08.410Z,64.30
2018-11-03T16:55:37.334Z,64.40
2018-11-03T16:58:05.934Z,64.50
2018-11-03T17:00:34.592Z,64.40
2018-11-03T17:03:03.191Z,64.80
2018-11-03T17:05:31.899Z,64.40
2018-11-03T17:08:00.518Z,64.40
2018-11-03T17:10:28.999Z,64.50
2018-11-03T17:12:57.946Z,64.50
2018-11-03T17:15:26.716Z,65.20
2018-11-03T17:17:55.363Z,65.10
2018-11-03T17:20:23.798Z,65.20
2018-11-03T17:22:53.846Z,65.20
2018-11-03T17:25:23.672Z,65.60
2018-11-03T17:27:52.103Z,65.20
2018-11-03T17:30:20.854Z,64.90
2018-11-03T17:32:49.742Z,66.10
2018-11-03T17:35:18.250Z,65.50
2018-11-03T17:37:47.004Z,64.70
2018-11-03T17:40:16.296Z,66.10
2018-11-03T17:42:45.009Z,64.40
2018-11-03T17:45:13.464Z,64.50
2018-11-03T17:47:42.304Z,64.30
2018-11-03T17:50:12.163Z,65.60
2018-11-03T17:52:40.761Z,64.70
2018-11-03T17:55:09.731Z,64.50
2018-11-03T17:57:38.359Z,64.10
2018-11-03T18:00:10.891Z,65.30
2018-11-03T18:02:39.327Z,65.00
2018-11-03T18:05:08.284Z,63.60
2018-11-03T18:07:37.896Z,64.20
2018-11-03T18:10:08.330Z,63.50
2018-11-03T18:12:36.772Z,63.10
2018-11-03T18:15:06.092Z,64.50
2018-11-03T18:17:34.908Z,64.00
2018-11-03T18:20:03.620Z,64.30
2018-11-03T18:22:32.321Z,64.60
2018-11-03T18:25:01.136Z,65.10
2018-11-03T18:27:29.608Z,65.20
2018-11-03T18:29:58.279Z,65.40
2018-11-03T18:32:26.909Z,64.80
2018-11-03T18:35:02.063Z,66.30
2018-11-03T18:37:30.523Z,64.40
2018-11-03T18:39:59.012Z,64.50
2018-11-03T18:42:27.884Z,63.90
2018-11-03T18:44:56.430Z,64.50
2018-11-03T18:47:25.221Z,65.00
2018-11-03T18:49:53.654Z,63.90
2018-11-03T18:52:22.208Z,64.20
2018-11-03T18:54:50.749Z,64.60
2018-11-03T18:57:19.471Z,65.40
2018-11-03T18:59:47.984Z,65.30
2018-11-03T19:02:16.817Z,64.60
2018-11-03T19:04:45.326Z,64.30
2018-11-03T19:07:14.316Z,65.00
2018-11-03T19:09:42.820Z,65.10
2018-11-03T19:12:11.556Z,63.90
2018-11-03T19:14:40.065Z,64.70
2018-11-03T19:17:08.591Z,63.70
2018-11-03T19:19:37.445Z,63.60
2018-11-03T19:22:05.939Z,63.20
2018-11-03T19:24:34.629Z,63.90
2018-11-03T19:27:03.460Z,63.70
2018-11-03T19:29:31.956Z,63.60
2018-11-03T19:32:01.350Z,64.10
2018-11-03T19:34:29.708Z,64.20
2018-11-03T19:36:58.132Z,63.40
2018-11-03T19:39:26.644Z,63.30
2018-11-03T19:41:55.370Z,64.30
2018-11-03T19:44:23.995Z,65.00
2018-11-03T19:46:52.756Z,63.20
2018-11-03T19:49:21.213Z,63.60
2018-11-03T19:51:50.191Z,64.00
2018-11-03T19:54:25.501Z,62.70
2018-11-03T19:56:54.101Z,62.70
2018-11-03T19:59:22.697Z,63.30
2018-11-03T20:01:51.072Z,64.10
2018-11-03T20:04:19.528Z,64.70
2018-11-03T20:06:47.968Z,64.60
2018-11-03T20:09:16.590Z,63.30
2018-11-03T20:11:45.169Z,64.00
2018-11-03T20:14:13.801Z,63.20
2018-11-03T20:16:42.572Z,62.30
2018-11-03T20:19:11.330Z,62.70
2018-11-03T20:21:39.712Z,64.40
2018-11-03T20:24:08.187Z,64.60
2018-11-03T20:26:37.010Z,62.40
2018-11-03T20:29:05.749Z,64.00
2018-11-03T20:31:34.293Z,62.20
2018-11-03T20:34:02.737Z,62.70
2018-11-03T20:36:31.345Z,63.20
2018-11-03T20:38:59.755Z,63.50
2018-11-03T20:41:28.442Z,62.70
2018-11-03T20:43:57.244Z,64.10
2018-11-03T20:46:25.733Z,64.90
2018-11-03T20:48:54.501Z,64.20
2018-11-03T20:51:22.886Z,62.20
2018-11-03T20:53:51.474Z,63.00
2018-11-03T20:56:20.143Z,63.00
2018-11-03T20:58:48.588Z,61.70
2018-11-03T21:01:18.075Z,61.80
2018-11-03T21:03:46.597Z,62.50
2018-11-03T21:06:15.184Z,63.40
2018-11-03T21:08:43.781Z,64.30
2018-11-03T21:11:12.483Z,64.60
2018-11-03T21:13:41.115Z,65.80
2018-11-03T21:16:09.565Z,63.40
2018-11-03T21:18:38.368Z,64.00
2018-11-03T21:21:07.018Z,63.50
2018-11-03T21:23:35.909Z,63.60
2018-11-03T21:26:04.476Z,64.20
2018-11-03T21:28:33.197Z,64.80
2018-11-03T21:31:01.953Z,63.80
2018-11-03T21:33:30.590Z,64.10
2018-11-03T21:35:59.099Z,64.60
2018-11-03T21:38:27.701Z,66.00
2018-11-03T21:40:56.331Z,64.00
2018-11-03T21:43:24.993Z,66.00
2018-11-03T21:45:53.681Z,63.80
2018-11-03T21:48:22.361Z,64.70
2018-11-03T21:50:51.297Z,65.00
2018-11-03T21:53:20.139Z,65.50
2018-11-03T21:55:48.871Z,64.40
2018-11-03T21:58:18.045Z,64.10
2018-11-03T22:00:46.546Z,64.10
2018-11-03T22:03:14.956Z,65.20
2018-11-03T22:05:43.337Z,64.80
2018-11-03T22:08:12.899Z,65.60
2018-11-03T22:10:41.600Z,65.20
2018-11-03T22:13:09.976Z,64.90
2018-11-03T22:15:38.438Z,64.60
2018-11-03T22:18:06.785Z,64.70
2018-11-03T22:20:35.417Z,65.70
2018-11-03T22:23:04.585Z,64.90
2018-11-03T22:25:33.922Z,65.90
2018-11-03T22:28:02.492Z,64.80
2018-11-03T22:30:30.837Z,64.70
2018-11-03T22:32:59.326Z,65.80
2018-11-03T22:35:28.800Z,65.20
2018-11-03T22:37:57.171Z,66.10
2018-11-03T22:40:25.864Z,65.80
2018-11-03T22:42:54.774Z,64.90
2018-11-03T22:45:23.431Z,64.20
2018-11-03T22:47:52.423Z,64.80
2018-11-03T22:50:20.794Z,64.50
2018-11-03T22:52:49.229Z,65.10
2018-11-03T22:55:17.700Z,66.30
2018-11-03T22:57:46.470Z,66.20
2018-11-03T23:00:21.646Z,66.30
2018-11-03T23:02:50.038Z,65.60
2018-11-03T23:05:18.420Z,65.40
2018-11-03T23:07:47.054Z,65.70
2018-11-03T23:10:15.465Z,67.00
2018-11-03T23:12:44.183Z,65.80
2018-11-03T23:15:12.533Z,68.80
2018-11-03T23:17:41.135Z,66.10
2018-11-03T23:20:11.716Z,65.20
2018-11-03T23:22:40.254Z,65.80
2018-11-03T23:25:09.288Z,65.90
2018-11-03T23:27:37.886Z,65.80
2018-11-03T23:30:09.606Z,66.30
2018-11-03T23:32:38.250Z,66.00
2018-11-03T23:35:09.004Z,65.60
2018-11-03T23:37:37.999Z,66.40
2018-11-03T23:40:07.242Z,65.90
2018-11-03T23:42:36.168Z,66.30
2018-11-03T23:45:05.527Z,66.60
2018-11-03T23:47:34.202Z,67.10
2018-11-03T23:50:02.669Z,67.70
2018-11-03T23:52:32.312Z,68.40
2018-11-03T23:55:01.510Z,68.50
2018-11-03T23:57:30.173Z,69.10
2018-11-03T23:59:59.000Z,69.00
